createdAt,value
2023-02-09T00:01:37.084Z,5.65
2023-02-09T00:04:03.893Z,5.32
2023-02-09T00:06:30.421Z,5.82
2023-02-09T00:08:58.327Z,5.55
2023-02-09T00:11:48.408Z,6.00
2023-02-09T00:14:17.926Z,7.45
2023-02-09T00:16:45.823Z,5.37
2023-02-09T00:19:13.078Z,5.50
2023-02-09T00:21:40.862Z,6.70
2023-02-09T00:24:08.053Z,5.95
2023-02-09T00:26:34.463Z,7.97
2023-02-09T00:29:00.890Z,7.10
2023-02-09T00:31:27.397Z,5.75
2023-02-09T00:33:53.868Z,6.30
2023-02-09T00:36:20.309Z,5.72
2023-02-09T00:38:47.090Z,5.90
2023-02-09T00:41:14.374Z,5.80
2023-02-09T00:43:40.807Z,6.05
2023-02-09T00:46:07.747Z,6.03
2023-02-09T00:48:34.416Z,5.45
2023-02-09T00:51:01.134Z,6.45
2023-02-09T00:53:27.878Z,4.97
2023-02-09T00:55:54.310Z,5.82
2023-02-09T00:58:20.748Z,6.28
2023-02-09T01:00:49.178Z,6.60
2023-02-09T01:03:15.726Z,6.18
2023-02-09T01:05:42.963Z,6.55
2023-02-09T01:08:09.893Z,6.13
2023-02-09T01:10:38.025Z,8.23
2023-02-09T01:13:04.584Z,7.40
2023-02-09T01:15:31.044Z,9.07
2023-02-09T01:17:58.609Z,5.97
2023-02-09T01:20:25.017Z,5.65
2023-02-09T01:22:51.513Z,6.13
2023-02-09T01:25:17.957Z,7.05
2023-02-09T01:27:44.338Z,5.90
2023-02-09T01:30:11.590Z,7.15
2023-02-09T01:32:37.986Z,6.38
2023-02-09T01:35:04.909Z,5.82
2023-02-09T01:37:34.082Z,7.20
2023-02-09T01:40:00.524Z,6.45
2023-02-09T01:42:27.629Z,7.43
2023-02-09T01:45:00.075Z,7.22
2023-02-09T01:47:26.564Z,8.15
2023-02-09T01:49:53.356Z,7.00
2023-02-09T01:52:25.443Z,6.80
2023-02-09T01:54:57.227Z,7.40
2023-02-09T01:57:27.792Z,6.40
2023-02-09T01:59:58.284Z,7.00
2023-02-09T02:02:25.326Z,7.13
2023-02-09T02:04:52.663Z,6.15
2023-02-09T02:07:32.836Z,7.22
2023-02-09T02:10:01.049Z,6.53
2023-02-09T02:12:27.567Z,6.18
2023-02-09T02:14:54.004Z,8.05
2023-02-09T02:17:40.038Z,7.10
2023-02-09T02:20:27.939Z,8.32
2023-02-09T02:23:05.220Z,7.53
2023-02-09T02:25:55.767Z,6.13
2023-02-09T02:28:31.709Z,7.07
2023-02-09T02:31:28.344Z,5.88
2023-02-09T02:34:18.303Z,6.95
2023-02-09T02:37:15.634Z,7.22
2023-02-09T02:39:51.350Z,8.13
2023-02-09T02:42:54.415Z,6.80
2023-02-09T02:45:32.849Z,7.25
2023-02-09T02:48:16.517Z,7.00
2023-02-09T02:51:02.098Z,7.35
2023-02-09T02:53:31.319Z,6.97
2023-02-09T02:56:04.440Z,5.90
2023-02-09T02:58:32.573Z,6.90
2023-02-09T03:01:02.760Z,7.38
2023-02-09T03:03:33.073Z,8.50
2023-02-09T03:06:02.858Z,7.97
2023-02-09T03:08:29.340Z,7.03
2023-02-09T03:10:56.193Z,6.72
2023-02-09T03:13:55.498Z,7.20
2023-02-09T03:16:46.312Z,6.82
2023-02-09T03:19:31.299Z,7.07
2023-02-09T03:22:20.362Z,7.05
2023-02-09T03:25:00.338Z,7.38
2023-02-09T03:27:41.166Z,6.90
2023-02-09T03:30:11.515Z,6.83
2023-02-09T03:32:40.875Z,7.15
2023-02-09T03:35:10.943Z,7.53
2023-02-09T03:37:37.400Z,8.80
2023-02-09T03:40:04.123Z,7.40
2023-02-09T03:42:30.556Z,6.35
2023-02-09T03:44:57.041Z,7.15
2023-02-09T03:47:23.502Z,6.88
2023-02-09T03:49:49.951Z,6.70
2023-02-09T03:52:17.152Z,7.93
2023-02-09T03:54:43.754Z,7.57
2023-02-09T03:57:10.685Z,6.43
2023-02-09T03:59:37.715Z,6.78
2023-02-09T04:02:06.775Z,7.03
2023-02-09T04:04:33.246Z,7.55
2023-02-09T04:06:59.917Z,6.38
2023-02-09T04:09:27.855Z,7.78
2023-02-09T04:11:54.689Z,7.45
2023-02-09T04:14:21.127Z,7.22
2023-02-09T04:16:47.856Z,8.15
2023-02-09T04:19:14.409Z,7.18
2023-02-09T04:21:40.845Z,7.53
2023-02-09T04:24:08.290Z,9.77
2023-02-09T04:26:35.390Z,7.05
2023-02-09T04:29:01.831Z,7.63
2023-02-09T04:31:28.392Z,10.13
2023-02-09T04:33:55.896Z,9.77
2023-02-09T04:36:23.407Z,14.55
2023-02-09T04:38:50.342Z,10.93
2023-02-09T04:41:17.146Z,8.32
2023-02-09T04:43:43.625Z,8.55
2023-02-09T04:46:14.808Z,8.90
2023-02-09T04:48:41.826Z,8.10
2023-02-09T04:51:08.612Z,7.20
2023-02-09T04:53:35.147Z,11.82
2023-02-09T04:56:01.822Z,21.13
2023-02-09T04:58:46.900Z,14.48
2023-02-09T05:01:18.737Z,9.48
2023-02-09T05:03:45.258Z,10.27
2023-02-09T05:06:11.836Z,7.85
2023-02-09T05:08:38.246Z,14.88
2023-02-09T05:11:04.783Z,11.07
2023-02-09T05:13:31.234Z,9.27
2023-02-09T05:15:57.786Z,8.65
2023-02-09T05:18:26.060Z,11.43
2023-02-09T05:20:52.627Z,10.60
2023-02-09T05:23:19.223Z,8.13
2023-02-09T05:25:46.140Z,11.98
2023-02-09T05:28:12.758Z,8.82
2023-02-09T05:30:39.319Z,10.88
2023-02-09T05:33:05.832Z,17.40
2023-02-09T05:35:32.264Z,12.40
2023-02-09T05:37:58.676Z,10.93
2023-02-09T05:40:25.268Z,11.82
2023-02-09T05:42:51.749Z,10.55
2023-02-09T05:45:18.308Z,11.25
2023-02-09T05:47:45.513Z,9.50
2023-02-09T05:50:11.918Z,7.63
2023-02-09T05:52:38.331Z,10.05
2023-02-09T05:55:04.988Z,9.38
2023-02-09T05:57:31.405Z,9.40
2023-02-09T05:59:57.778Z,8.63
2023-02-09T06:02:24.251Z,8.70
2023-02-09T06:04:50.680Z,9.80
2023-02-09T06:10:13.423Z,8.15
2023-02-09T06:12:41.336Z,8.85
2023-02-09T06:15:09.791Z,7.78
2023-02-09T06:17:36.709Z,16.25
2023-02-09T06:20:03.834Z,14.35
2023-02-09T06:22:33.456Z,9.52
2023-02-09T06:25:00.726Z,8.95
2023-02-09T06:27:30.868Z,9.93
2023-02-09T06:29:57.322Z,10.00
2023-02-09T06:32:24.032Z,11.23
2023-02-09T06:34:57.919Z,9.15
2023-02-09T06:37:27.048Z,16.60
2023-02-09T06:40:01.528Z,13.70
2023-02-09T06:42:43.757Z,14.88
2023-02-09T06:45:18.148Z,18.25
2023-02-09T06:47:46.023Z,18.27
2023-02-09T06:50:16.917Z,16.65
2023-02-09T06:52:43.779Z,14.68
2023-02-09T06:55:10.810Z,12.63
2023-02-09T06:57:50.156Z,11.32
2023-02-09T07:00:17.504Z,13.07
2023-02-09T07:02:49.715Z,13.30
2023-02-09T07:05:18.100Z,13.57
2023-02-09T07:07:45.972Z,13.55
2023-02-09T07:10:15.394Z,11.30
2023-02-09T07:12:49.363Z,11.52
2023-02-09T07:15:16.693Z,11.40
2023-02-09T07:17:43.444Z,12.05
2023-02-09T07:20:10.636Z,11.25
2023-02-09T07:22:37.117Z,11.55
2023-02-09T07:25:03.834Z,10.43
2023-02-09T07:27:32.711Z,11.02
2023-02-09T07:30:00.899Z,10.20
2023-02-09T07:32:27.826Z,10.60
2023-02-09T07:34:55.848Z,9.98
2023-02-09T07:37:25.801Z,10.55
2023-02-09T07:39:54.024Z,11.75
2023-02-09T07:42:23.077Z,10.27
2023-02-09T07:44:55.377Z,9.65
2023-02-09T07:47:21.978Z,12.38
2023-02-09T07:49:51.783Z,8.90
2023-02-09T07:52:18.720Z,7.40
2023-02-09T07:54:45.960Z,8.85
2023-02-09T07:57:19.069Z,9.48
2023-02-09T08:00:02.028Z,14.93
2023-02-09T08:02:36.904Z,9.52
2023-02-09T08:05:07.980Z,8.10
2023-02-09T08:07:34.485Z,11.13
2023-02-09T08:10:00.934Z,8.77
2023-02-09T08:12:50.499Z,9.13
2023-02-09T08:15:24.401Z,11.82
2023-02-09T08:17:56.726Z,9.70
2023-02-09T08:20:30.277Z,8.88
2023-02-09T08:23:07.723Z,9.02
2023-02-09T08:25:35.811Z,8.35
2023-02-09T08:28:12.505Z,8.30
2023-02-09T08:30:39.127Z,9.15
2023-02-09T08:33:05.552Z,9.73
2023-02-09T08:35:31.991Z,11.00
2023-02-09T08:38:02.857Z,7.72
2023-02-09T08:40:30.825Z,7.07
2023-02-09T08:42:57.796Z,9.55
2023-02-09T08:45:28.462Z,7.78
2023-02-09T08:48:02.220Z,13.37
2023-02-09T08:50:28.686Z,8.50
2023-02-09T08:52:57.835Z,9.77
2023-02-09T08:55:24.490Z,9.57
2023-02-09T08:57:51.621Z,7.70
2023-02-09T09:00:18.788Z,10.27
2023-02-09T09:02:52.707Z,7.78
2023-02-09T09:05:19.184Z,7.22
2023-02-09T09:07:45.731Z,8.93
2023-02-09T09:10:22.244Z,8.00
2023-02-09T09:12:49.212Z,8.48
2023-02-09T09:15:15.608Z,8.55
2023-02-09T09:17:42.043Z,7.82
2023-02-09T09:20:08.980Z,8.48
2023-02-09T09:22:35.799Z,7.82
2023-02-09T09:25:02.730Z,7.00
2023-02-09T09:27:29.440Z,6.82
2023-02-09T09:29:58.946Z,8.20
2023-02-09T09:32:25.787Z,7.90
2023-02-09T09:35:07.806Z,19.27
2023-02-09T09:37:34.260Z,9.05
2023-02-09T09:40:00.725Z,7.05
2023-02-09T09:42:49.049Z,6.22
2023-02-09T09:45:24.960Z,7.00
2023-02-09T09:47:52.606Z,7.20
2023-02-09T09:50:26.327Z,7.60
2023-02-09T09:53:12.147Z,8.75
2023-02-09T09:55:39.334Z,7.35
2023-02-09T09:58:21.134Z,6.88
2023-02-09T10:03:22.113Z,6.25
2023-02-09T10:06:03.170Z,6.35
2023-02-09T10:08:36.571Z,6.68
2023-02-09T10:11:11.836Z,6.72
2023-02-09T10:13:56.274Z,5.95
2023-02-09T10:16:34.521Z,6.65
2023-02-09T10:19:03.797Z,6.93
2023-02-09T10:21:34.822Z,7.50
2023-02-09T10:24:01.260Z,6.22
2023-02-09T10:26:33.253Z,6.82
2023-02-09T10:29:20.895Z,5.40
2023-02-09T10:31:54.844Z,5.05
2023-02-09T10:34:33.235Z,5.97
2023-02-09T10:37:48.203Z,6.20
2023-02-09T10:40:19.066Z,6.57
2023-02-09T10:43:07.153Z,6.47
2023-02-09T10:45:51.415Z,6.32
2023-02-09T10:48:20.621Z,6.55
2023-02-09T10:51:19.461Z,5.93
2023-02-09T10:54:07.257Z,6.45
2023-02-09T10:56:49.550Z,5.57
2023-02-09T10:59:19.032Z,6.90
2023-02-09T11:01:54.433Z,6.65
2023-02-09T11:04:23.799Z,7.40
2023-02-09T11:06:58.015Z,7.82
2023-02-09T11:09:28.825Z,5.35
2023-02-09T11:11:55.885Z,6.25
2023-02-09T11:14:22.966Z,6.00
2023-02-09T11:16:58.122Z,6.10
2023-02-09T11:20:05.193Z,7.28
2023-02-09T11:22:53.142Z,5.93
2023-02-09T11:25:41.044Z,7.43
2023-02-09T11:28:26.505Z,6.07
2023-02-09T11:31:17.737Z,5.65
2023-02-09T11:34:05.997Z,8.55
2023-02-09T11:37:02.323Z,6.55
2023-02-09T11:39:44.374Z,7.97
2023-02-09T11:42:34.440Z,6.55
2023-02-09T11:45:12.561Z,6.57
2023-02-09T11:47:57.970Z,6.45
2023-02-09T11:50:34.019Z,7.03
2023-02-09T11:53:21.334Z,6.97
2023-02-09T11:55:52.167Z,7.47
2023-02-09T11:58:33.771Z,7.40
2023-02-09T12:01:15.995Z,8.15
2023-02-09T12:03:55.036Z,7.28
2023-02-09T12:06:24.028Z,7.65
2023-02-09T12:08:59.423Z,6.95
2023-02-09T12:12:08.000Z,9.10
2023-02-09T12:14:41.505Z,7.25
2023-02-09T12:17:51.366Z,6.60
2023-02-09T12:20:29.230Z,6.63
2023-02-09T12:23:01.035Z,6.90
2023-02-09T12:25:51.496Z,7.47
2023-02-09T12:28:42.687Z,6.97
2023-02-09T12:31:20.535Z,8.63
2023-02-09T12:33:47.184Z,8.50
2023-02-09T12:36:13.600Z,8.05
2023-02-09T12:38:56.358Z,7.93
2023-02-09T12:41:23.356Z,6.85
2023-02-09T12:43:50.769Z,7.82
2023-02-09T12:46:17.293Z,7.45
2023-02-09T12:48:50.993Z,7.90
2023-02-09T12:51:39.326Z,7.97
2023-02-09T12:54:43.142Z,6.88
2023-02-09T12:57:15.829Z,7.15
2023-02-09T13:00:00.636Z,7.88
2023-02-09T13:02:36.080Z,7.40
2023-02-09T13:05:17.265Z,7.65
2023-02-09T13:08:11.336Z,9.00
2023-02-09T13:10:41.104Z,7.70
2023-02-09T13:13:18.672Z,8.52
2023-02-09T13:15:52.040Z,10.27
2023-02-09T13:18:38.549Z,8.02
2023-02-09T13:21:39.604Z,7.05
2023-02-09T13:24:19.036Z,6.87
2023-02-09T13:27:19.229Z,8.13
2023-02-09T13:29:53.589Z,7.63
2023-02-09T13:32:38.596Z,8.50
2023-02-09T13:35:18.442Z,7.38
2023-02-09T13:37:52.441Z,7.43
2023-02-09T13:40:23.528Z,8.45
2023-02-09T13:42:56.412Z,7.30
2023-02-09T13:45:26.664Z,7.57
2023-02-09T13:47:54.734Z,7.85
2023-02-09T13:50:23.922Z,8.38
2023-02-09T13:52:51.287Z,8.02
2023-02-09T13:55:26.217Z,8.77
2023-02-09T13:58:07.220Z,9.50
2023-02-09T14:00:39.431Z,8.77
2023-02-09T14:03:12.418Z,7.88
2023-02-09T14:05:48.882Z,8.98
2023-02-09T14:08:18.205Z,7.97
2023-02-09T14:10:54.045Z,7.75
2023-02-09T14:13:39.239Z,9.07
2023-02-09T14:16:07.262Z,8.35
2023-02-09T14:18:57.940Z,8.23
2023-02-09T14:21:44.797Z,7.75
2023-02-09T14:24:22.621Z,7.85
2023-02-09T14:26:59.387Z,8.52
2023-02-09T14:29:31.333Z,8.95
2023-02-09T14:32:36.555Z,9.43
2023-02-09T14:35:22.172Z,8.27
2023-02-09T14:37:50.096Z,8.50
2023-02-09T14:40:26.834Z,8.15
2023-02-09T14:43:11.674Z,9.40
2023-02-09T14:45:40.355Z,9.90
2023-02-09T14:48:16.744Z,7.32
2023-02-09T14:50:43.911Z,9.30
2023-02-09T14:53:13.687Z,9.05
2023-02-09T14:55:40.815Z,8.13
2023-02-09T14:58:21.508Z,8.10
2023-02-09T15:00:48.693Z,9.60
2023-02-09T15:03:15.692Z,9.85
2023-02-09T15:05:42.869Z,15.63
2023-02-09T15:08:15.943Z,12.43
2023-02-09T15:10:48.743Z,10.55
2023-02-09T15:13:16.190Z,10.27
2023-02-09T15:15:43.587Z,10.20
2023-02-09T15:18:19.051Z,9.07
2023-02-09T15:20:45.945Z,9.40
2023-02-09T15:23:12.896Z,9.30
2023-02-09T15:25:40.753Z,8.50
2023-02-09T15:28:14.418Z,9.20
2023-02-09T15:30:40.991Z,9.55
2023-02-09T15:33:12.594Z,9.45
2023-02-09T15:38:06.117Z,8.57
2023-02-09T15:41:01.689Z,9.52
2023-02-09T15:43:48.000Z,10.65
2023-02-09T15:46:34.072Z,11.75
2023-02-09T15:49:01.577Z,8.48
2023-02-09T15:51:34.257Z,10.40
2023-02-09T15:54:05.398Z,10.02
2023-02-09T15:56:31.833Z,11.85
2023-02-09T15:59:03.520Z,9.55
2023-02-09T16:01:34.145Z,10.98
2023-02-09T16:04:14.469Z,13.02
2023-02-09T16:06:48.742Z,12.82
2023-02-09T16:09:19.966Z,11.40
2023-02-09T16:11:48.517Z,9.50
2023-02-09T16:14:17.123Z,12.40
2023-02-09T16:16:45.720Z,11.15
2023-02-09T16:19:13.480Z,10.55
2023-02-09T16:21:43.412Z,11.02
2023-02-09T16:24:21.334Z,14.45
2023-02-09T16:26:48.095Z,12.98
2023-02-09T16:29:15.358Z,11.13
2023-02-09T16:31:42.004Z,10.38
2023-02-09T16:34:09.395Z,12.80
2023-02-09T16:36:35.913Z,10.32
2023-02-09T16:39:03.492Z,11.70
2023-02-09T16:41:49.660Z,11.30
2023-02-09T16:44:24.633Z,11.52
2023-02-09T16:46:53.558Z,11.82
2023-02-09T16:49:34.754Z,11.90
2023-02-09T16:52:06.073Z,10.63
2023-02-09T16:54:40.641Z,11.43
2023-02-09T16:57:09.441Z,11.07
2023-02-09T16:59:35.905Z,11.38
2023-02-09T17:02:03.687Z,10.48
2023-02-09T17:04:30.217Z,11.82
2023-02-09T17:06:56.717Z,11.82
2023-02-09T17:09:23.102Z,11.48
2023-02-09T17:11:49.567Z,11.82
2023-02-09T17:14:15.962Z,11.65
2023-02-09T17:16:45.055Z,10.10
2023-02-09T17:19:15.314Z,11.43
2023-02-09T17:21:42.288Z,13.60
2023-02-09T17:24:15.297Z,13.55
2023-02-09T17:26:42.058Z,16.50
2023-02-09T17:29:09.026Z,20.17
2023-02-09T17:31:51.956Z,32.60
2023-02-09T17:34:20.538Z,33.60
2023-02-09T17:36:47.084Z,32.15
2023-02-09T17:39:13.947Z,22.70
2023-02-09T17:41:45.207Z,23.02
2023-02-09T17:44:22.250Z,17.88
2023-02-09T17:46:55.702Z,12.60
2023-02-09T17:49:22.199Z,10.38
2023-02-09T17:51:49.275Z,9.73
2023-02-09T17:54:18.758Z,10.48
2023-02-09T17:56:45.666Z,10.68
2023-02-09T17:59:13.376Z,10.45
2023-02-09T18:01:42.517Z,13.30
2023-02-09T18:04:16.462Z,10.98
2023-02-09T18:06:42.905Z,12.77
2023-02-09T18:09:12.429Z,11.82
2023-02-09T18:12:02.049Z,14.65
2023-02-09T18:14:31.107Z,11.43
2023-02-09T18:16:57.600Z,11.40
2023-02-09T18:19:24.681Z,11.35
2023-02-09T18:21:53.668Z,10.50
2023-02-09T18:24:22.294Z,10.27
2023-02-09T18:26:50.983Z,10.90
2023-02-09T18:29:18.420Z,9.65
2023-02-09T18:31:46.583Z,11.35
2023-02-09T18:34:13.880Z,10.88
2023-02-09T18:36:40.287Z,10.90
2023-02-09T18:39:06.775Z,10.70
2023-02-09T18:41:33.366Z,14.50
2023-02-09T18:43:59.754Z,15.15
2023-02-09T18:46:27.022Z,12.18
2023-02-09T18:48:54.676Z,11.82
2023-02-09T18:51:21.811Z,13.00
2023-02-09T18:53:50.141Z,15.80
2023-02-09T18:56:19.217Z,14.35
2023-02-09T18:58:46.191Z,15.57
2023-02-09T19:01:13.607Z,13.00
2023-02-09T19:03:40.159Z,13.93
2023-02-09T19:06:10.814Z,12.80
2023-02-09T19:08:38.568Z,21.58
2023-02-09T19:11:06.151Z,29.63
2023-02-09T19:13:34.028Z,24.90
2023-02-09T19:16:01.128Z,18.90
2023-02-09T19:18:28.194Z,21.33
2023-02-09T19:20:57.251Z,40.15
2023-02-09T19:23:24.718Z,39.53
2023-02-09T19:26:01.668Z,51.95
2023-02-09T19:28:28.186Z,50.90
2023-02-09T19:30:54.724Z,48.45
2023-02-09T19:33:23.321Z,52.70
2023-02-09T19:35:57.757Z,46.42
2023-02-09T19:38:25.629Z,39.78
2023-02-09T19:41:05.116Z,55.95
2023-02-09T19:43:36.051Z,40.65
2023-02-09T19:46:02.549Z,31.15
2023-02-09T19:48:28.961Z,29.27
2023-02-09T19:50:56.970Z,65.15
2023-02-09T19:53:24.020Z,72.43
2023-02-09T19:55:52.102Z,103.85
2023-02-09T19:58:22.296Z,95.43
2023-02-09T20:00:50.265Z,33.47
2023-02-09T20:03:17.451Z,36.10
2023-02-09T20:05:44.803Z,27.33
2023-02-09T20:08:15.765Z,23.33
2023-02-09T20:10:43.920Z,21.93
2023-02-09T20:13:14.122Z,17.95
2023-02-09T20:15:42.262Z,15.77
2023-02-09T20:18:09.299Z,16.33
2023-02-09T20:20:35.785Z,13.45
2023-02-09T20:23:02.183Z,18.98
2023-02-09T20:25:28.632Z,19.92
2023-02-09T20:27:55.697Z,17.63
2023-02-09T20:30:22.157Z,23.30
2023-02-09T20:32:48.641Z,31.88
2023-02-09T20:35:15.193Z,31.38
2023-02-09T20:37:41.650Z,38.63
2023-02-09T20:40:11.302Z,38.88
2023-02-09T20:42:57.127Z,33.03
2023-02-09T20:45:42.522Z,31.80
2023-02-09T20:48:08.947Z,20.02
2023-02-09T20:50:35.438Z,18.83
2023-02-09T20:53:03.277Z,18.13
2023-02-09T20:55:30.409Z,17.95
2023-02-09T20:57:56.874Z,16.60
2023-02-09T21:00:23.411Z,16.48
2023-02-09T21:02:49.905Z,15.75
2023-02-09T21:05:16.679Z,13.65
2023-02-09T21:07:43.266Z,15.02
2023-02-09T21:10:12.763Z,15.18
2023-02-09T21:12:39.294Z,14.18
2023-02-09T21:15:06.050Z,14.85
2023-02-09T21:17:32.565Z,14.30
2023-02-09T21:19:58.986Z,15.90
2023-02-09T21:22:25.407Z,39.28
2023-02-09T21:24:51.860Z,26.33
2023-02-09T21:27:18.377Z,17.52
2023-02-09T21:29:44.865Z,18.67
2023-02-09T21:32:11.301Z,19.77
2023-02-09T21:34:37.744Z,29.38
2023-02-09T21:37:07.724Z,21.23
2023-02-09T21:39:34.196Z,18.25
2023-02-09T21:42:18.984Z,18.70
2023-02-09T21:44:45.386Z,18.52
2023-02-09T21:47:12.084Z,20.95
2023-02-09T21:49:38.584Z,18.38
2023-02-09T21:52:05.523Z,19.30
2023-02-09T21:54:33.926Z,21.88
2023-02-09T21:57:01.403Z,21.08
2023-02-09T21:59:28.621Z,21.45
2023-02-09T22:01:55.265Z,20.88
2023-02-09T22:04:21.801Z,21.80
2023-02-09T22:06:48.481Z,22.13
2023-02-09T22:09:14.977Z,21.48
2023-02-09T22:11:41.608Z,23.52
2023-02-09T22:14:08.031Z,26.80
2023-02-09T22:16:34.468Z,25.60
2023-02-09T22:19:00.917Z,29.58
2023-02-09T22:21:27.478Z,26.15
2023-02-09T22:23:54.377Z,25.65
2023-02-09T22:26:21.214Z,25.25
2023-02-09T22:28:47.795Z,25.17
2023-02-09T22:31:19.117Z,25.88
2023-02-09T22:33:45.779Z,22.20
2023-02-09T22:36:14.991Z,26.48
2023-02-09T22:38:42.140Z,26.75
2023-02-09T22:41:21.271Z,23.45
2023-02-09T22:43:50.674Z,21.00
2023-02-09T22:46:17.419Z,22.73
2023-02-09T22:48:44.377Z,20.45
2023-02-09T22:51:17.129Z,17.92
2023-02-09T22:53:44.798Z,18.35
2023-02-09T22:56:12.380Z,18.65
2023-02-09T22:58:38.899Z,15.23
2023-02-09T23:01:06.045Z,17.95
2023-02-09T23:03:33.814Z,16.20
2023-02-09T23:06:01.799Z,15.45
2023-02-09T23:08:28.758Z,15.75
2023-02-09T23:11:01.427Z,16.05
2023-02-09T23:13:27.916Z,16.35
2023-02-09T23:15:54.394Z,16.73
2023-02-09T23:18:20.891Z,15.52
2023-02-09T23:20:48.954Z,19.33
2023-02-09T23:23:16.275Z,15.82
2023-02-09T23:25:42.782Z,17.65
2023-02-09T23:28:09.250Z,15.68
2023-02-09T23:30:35.718Z,17.52
2023-02-09T23:33:02.282Z,16.08
2023-02-09T23:35:28.717Z,17.38
2023-02-09T23:37:55.149Z,17.40
2023-02-09T23:40:21.569Z,17.23
2023-02-09T23:42:47.982Z,15.88
2023-02-09T23:45:14.605Z,16.52
2023-02-09T23:47:41.019Z,18.52
2023-02-09T23:50:07.516Z,17.38
2023-02-09T23:52:33.967Z,18.13
2023-02-09T23:55:00.485Z,25.35
2023-02-09T23:57:26.926Z,22.52
2023-02-09T23:59:53.352Z,28.55
